Terminal Aerodrome Forecast
Issued by NWS

Current Version | Previous Version | Graphics & Text | Print | Product List | Glossary On
Versions: 1 2 3 4 5 6 7 8 9 10 11 12 13 14 15 16 17 18
000
FTUS41 KRNK 262320
TAFLWB
TAF
KLWB 262320Z 2700/2724 00000KT P6SM SKC
     FM270700 00000KT P6SM BKN090
     FM271800 20006KT P6SM BKN090=

USA.gov is the U.S. government's official web portal to all federal, state and local government web resources and services.